Time;durP1;ratioP1;P1;durP2;ratioP2;P2;SDS_P1;SDS_P2;PMS_P1;PMS_P2;Temp;Humidity;BMP_temperature;BMP_pressure;BME280_temperature;BME280_humidity;BME280_pressure;Samples;Min_cycle;Max_cycle;Signal;HPM_P1;HPM_P2
2023/01/20 00:02:10;;;;;;;10.13;4.18;;;;;;;15.93;54.52;100287.50;5052411;28;20493;-79
2023/01/20 00:04:36;;;;;;;11.65;4.35;;;;;;;16.00;54.63;100283.13;5052181;28;20514;-81
2023/01/20 00:07:02;;;;;;;6.18;3.92;;;;;;;16.03;54.30;100282.78;5052292;28;20112;-80
2023/01/20 00:09:28;;;;;;;18.17;4.32;;;;;;;16.07;54.22;100286.88;5034217;28;20408;-80
2023/01/20 00:11:53;;;;;;;11.73;3.72;;;;;;;16.13;54.06;100283.47;5052484;28;20025;-80
2023/01/20 00:14:19;;;;;;;11.82;4.72;;;;;;;16.18;54.43;100285.66;5052107;28;20037;-80
2023/01/20 00:16:45;;;;;;;8.82;4.07;;;;;;;16.21;54.35;100296.19;5052293;28;20404;-78
2023/01/20 00:19:13;;;;;;;11.75;4.28;;;;;;;16.28;54.07;100295.34;5051675;28;20129;-78
2023/01/20 00:21:38;;;;;;;14.02;4.50;;;;;;;16.30;54.17;100287.03;5051483;28;20025;-79
2023/01/20 00:24:04;;;;;;;11.02;3.97;;;;;;;16.35;54.08;100290.09;5051578;28;20098;-80
2023/01/20 00:26:30;;;;;;;7.75;4.13;;;;;;;16.37;53.95;100284.47;5051642;28;20491;-80
2023/01/20 00:28:58;;;;;;;12.35;4.05;;;;;;;16.33;53.85;100273.97;5052255;28;20098;-80
2023/01/20 00:31:29;;;;;;;9.38;3.70;;;;;;;16.37;53.87;100271.75;5051926;28;20051;-79
2023/01/20 00:33:57;;;;;;;6.30;3.50;;;;;;;16.27;53.91;100262.94;5052349;28;20108;-79
2023/01/20 00:36:24;;;;;;;17.38;4.90;;;;;;;16.43;53.91;100270.22;5053690;28;20055;-80
2023/01/20 00:38:50;;;;;;;11.82;5.53;;;;;;;16.38;53.95;100261.75;5052982;28;20041;-79
2023/01/20 00:41:16;;;;;;;14.25;4.72;;;;;;;16.42;53.81;100263.13;5033808;28;20080;-79
2023/01/20 00:43:41;;;;;;;10.85;4.43;;;;;;;16.42;53.83;100255.81;5051584;28;20035;-78
2023/01/20 00:46:07;;;;;;;11.48;5.00;;;;;;;16.41;53.85;100247.84;5051444;28;20132;-79
2023/01/20 00:48:33;;;;;;;8.50;4.55;;;;;;;16.36;54.08;100245.63;5052192;28;20040;-80
2023/01/20 00:50:59;;;;;;;9.25;4.13;;;;;;;16.32;54.38;100249.72;5052118;28;20039;-80
2023/01/20 00:53:24;;;;;;;17.48;5.55;;;;;;;16.41;54.47;100256.00;5051552;28;20119;-79
2023/01/20 00:55:50;;;;;;;14.45;4.43;;;;;;;16.42;54.44;100260.41;5051506;28;20029;-79
2023/01/20 00:58:15;;;;;;;9.00;4.68;;;;;;;16.44;54.68;100256.50;5051751;28;20033;-79
2023/01/20 01:00:41;;;;;;;15.18;6.03;;;;;;;16.30;55.74;100249.03;5051781;28;20036;-79
2023/01/20 01:03:07;;;;;;;12.82;5.68;;;;;;;16.14;56.28;100251.78;5033456;28;20029;-79
2023/01/20 01:05:32;;;;;;;21.95;6.05;;;;;;;16.14;56.32;100255.34;5032683;28;20628;-79
2023/01/20 01:07:58;;;;;;;87.43;13.00;;;;;;;16.13;57.10;100244.63;5051251;28;20401;-79
2023/01/20 01:10:24;;;;;;;14.60;6.50;;;;;;;16.05;57.86;100248.22;5051142;28;20059;-80
2023/01/20 01:12:49;;;;;;;13.15;6.53;;;;;;;15.89;59.13;100240.06;5050628;28;20032;-79
2023/01/20 01:15:15;;;;;;;20.48;7.18;;;;;;;15.84;59.61;100234.28;5043300;28;20548;-79
2023/01/20 01:17:42;;;;;;;30.92;8.35;;;;;;;15.56;60.67;100213.94;5031478;28;20107;-79
2023/01/20 01:20:12;;;;;;;20.25;7.85;;;;;;;15.51;61.07;100224.41;5042038;28;20102;-79
2023/01/20 01:22:38;;;;;;;21.02;8.68;;;;;;;15.43;61.82;100235.19;5050860;28;20025;-78
2023/01/20 01:25:04;;;;;;;25.27;8.70;;;;;;;15.34;62.34;100230.78;5050011;28;20403;-78
2023/01/20 01:27:29;;;;;;;17.98;8.32;;;;;;;15.19;63.19;100239.53;5051129;28;20036;-80
2023/01/20 01:29:55;;;;;;;18.48;8.75;;;;;;;15.13;63.75;100220.38;5032563;28;20033;-81
2023/01/20 01:32:21;;;;;;;26.48;9.40;;;;;;;15.25;63.68;100238.88;5050734;28;20032;-79
2023/01/20 01:34:46;;;;;;;21.90;8.88;;;;;;;15.14;63.62;100225.63;5032256;28;20471;-80
2023/01/20 01:37:12;;;;;;;18.20;9.88;;;;;;;15.20;63.89;100224.97;5050949;28;20032;-79
2023/01/20 01:39:38;;;;;;;32.80;14.05;;;;;;;15.23;64.04;100243.59;5050730;28;20468;-80
2023/01/20 01:42:12;;;;;;;17.73;9.73;;;;;;;15.21;64.45;100232.09;5050870;28;20025;-79
2023/01/20 01:44:58;;;;;;;26.38;10.07;;;;;;;15.19;64.14;100233.28;5047896;28;20041;-78
2023/01/20 01:47:24;;;;;;;21.05;11.20;;;;;;;15.11;64.52;100225.09;5050743;28;20497;-78
2023/01/20 01:49:50;;;;;;;21.52;10.43;;;;;;;15.16;64.34;100217.34;5050406;28;20063;-78
2023/01/20 01:52:17;;;;;;;17.10;9.95;;;;;;;15.11;64.55;100225.09;5016417;28;20037;-78
2023/01/20 01:54:44;;;;;;;19.25;9.43;;;;;;;15.06;64.31;100219.31;5050703;28;20041;-81
2023/01/20 01:57:11;;;;;;;18.10;9.27;;;;;;;15.02;64.73;100209.81;5050778;28;20094;-79
2023/01/20 01:59:37;;;;;;;21.08;9.50;;;;;;;14.97;64.76;100218.44;5050959;28;20053;-78
2023/01/20 02:02:03;;;;;;;17.35;9.50;;;;;;;14.93;64.98;100214.38;5052622;28;20098;-78
2023/01/20 02:04:30;;;;;;;26.83;9.52;;;;;;;14.84;65.28;100212.63;5057251;28;20025;-79
2023/01/20 02:07:03;;;;;;;22.60;8.88;;;;;;;14.77;65.38;100206.16;5067407;28;20041;-79
2023/01/20 02:09:30;;;;;;;18.75;8.68;;;;;;;14.89;65.40;100215.69;5057509;28;20036;-79
2023/01/20 02:12:00;;;;;;;19.63;9.55;;;;;;;14.91;65.39;100224.53;5054327;28;20029;-79
2023/01/20 02:14:32;;;;;;;25.90;9.60;;;;;;;14.89;65.25;100220.28;5053916;28;20037;-80
2023/01/20 02:17:03;;;;;;;19.97;9.87;;;;;;;14.85;65.63;100214.34;5052498;28;20029;-79
2023/01/20 02:19:36;;;;;;;17.35;9.77;;;;;;;14.93;65.48;100205.38;5050825;28;20072;-79
2023/01/20 02:22:02;;;;;;;21.83;9.15;;;;;;;14.93;65.10;100205.38;5050713;28;20140;-79
2023/01/20 02:24:42;;;;;;;20.50;9.00;;;;;;;14.91;65.30;100221.81;5050035;28;20102;-79
2023/01/20 02:27:14;;;;;;;27.23;10.43;;;;;;;14.89;65.49;100195.91;5049510;28;20507;-79
2023/01/20 02:29:39;;;;;;;;;;;;;;;14.95;65.34;100204.22;5050759;28;20108;-79
2023/01/20 02:32:08;;;;;;;23.77;10.73;;;;;;;14.93;65.36;100199.97;5050123;28;19995;-79
2023/01/20 02:34:39;;;;;;;26.75;10.07;;;;;;;14.86;65.41;100198.94;5050012;28;21066;-79
2023/01/20 02:37:18;;;;;;;25.73;9.52;;;;;;;14.79;65.92;100189.75;5049399;28;20047;-80
2023/01/20 02:39:59;;;;;;;21.85;10.65;;;;;;;14.85;65.58;100199.94;5049662;28;20052;-79
2023/01/20 02:42:38;;;;;;;19.02;8.82;;;;;;;14.72;66.21;100192.28;5049484;28;20041;-79
2023/01/20 02:45:12;;;;;;;17.48;9.00;;;;;;;14.73;66.07;100193.97;5049147;28;20159;-78
2023/01/20 02:47:44;;;;;;;31.73;10.27;;;;;;;14.65;66.21;100197.47;5049476;28;20029;-78
2023/01/20 02:50:25;;;;;;;28.00;9.65;;;;;;;14.55;67.06;100193.22;5049279;28;20118;-81
2023/01/20 02:52:53;;;;;;;23.35;9.55;;;;;;;14.51;67.20;100186.41;5049926;28;20032;-79
2023/01/20 02:55:35;;;;;;;23.02;9.85;;;;;;;14.51;67.44;100183.69;5049061;28;20120;-79
2023/01/20 02:58:05;;;;;;;22.40;10.02;;;;;;;14.46;67.67;100186.88;5049553;28;20025;-80
2023/01/20 03:00:37;;;;;;;17.92;10.15;;;;;;;14.30;68.21;100181.34;5049345;28;20033;-79
2023/01/20 03:03:08;;;;;;;18.15;10.80;;;;;;;14.43;68.21;100186.38;5048876;28;20028;-79
2023/01/20 03:05:38;;;;;;;26.67;10.93;;;;;;;14.38;68.58;100186.84;5048954;28;20450;-79
2023/01/20 03:08:07;;;;;;;25.52;12.50;;;;;;;14.34;68.34;100176.50;5049158;28;20468;-80
2023/01/20 03:10:36;;;;;;;22.50;11.55;;;;;;;14.18;69.10;100174.50;5049414;28;20459;-79
2023/01/20 03:13:24;;;;;;;26.08;12.25;;;;;;;14.29;69.46;100186.91;5048802;28;20598;-79
2023/01/20 03:16:06;;;;;;;27.60;12.57;;;;;;;14.28;69.29;100191.47;5049460;28;20033;-80
2023/01/20 03:18:33;;;;;;;26.67;12.50;;;;;;;14.25;69.62;100189.09;5030237;28;20025;-80
2023/01/20 03:21:01;;;;;;;25.85;11.07;;;;;;;14.04;70.06;100191.28;5048693;28;20036;-81
2023/01/20 03:23:32;;;;;;;25.83;11.50;;;;;;;14.18;69.88;100191.59;5039146;28;20065;-80
2023/01/20 03:25:58;;;;;;;18.40;11.90;;;;;;;14.16;69.72;100193.59;5041636;28;20408;-80
2023/01/20 03:28:24;;;;;;;23.48;10.95;;;;;;;14.31;69.51;100203.84;5029347;28;20087;-79
2023/01/20 03:30:51;;;;;;;24.25;10.82;;;;;;;14.29;69.46;100189.63;5043670;28;20037;-78
2023/01/20 03:33:16;;;;;;;16.42;11.00;;;;;;;14.24;69.58;100181.13;5048964;28;20025;-78
2023/01/20 03:35:42;;;;;;;23.98;11.43;;;;;;;14.15;69.74;100178.41;5048630;28;20036;-79
2023/01/20 03:38:09;;;;;;;24.17;12.75;;;;;;;14.16;69.60;100182.78;5048777;28;20029;-78
2023/01/20 03:40:44;;;;;;;25.63;12.45;;;;;;;14.24;69.97;100200.06;5048210;28;20033;-78
2023/01/20 03:43:19;;;;;;;27.83;12.68;;;;;;;14.22;69.74;100194.00;5048298;28;20028;-80
2023/01/20 03:45:54;;;;;;;25.58;11.27;;;;;;;14.29;69.58;100189.63;5036660;28;20063;-80
2023/01/20 03:48:34;;;;;;;28.77;12.32;;;;;;;14.24;69.05;100179.28;5049165;28;20068;-78
2023/01/20 03:51:07;;;;;;;23.80;12.27;;;;;;;14.29;69.50;100187.75;5047873;28;20488;-80
2023/01/20 03:53:44;;;;;;;27.52;11.82;;;;;;;14.35;69.06;100192.56;5048547;28;20500;-79
2023/01/20 03:56:20;;;;;;;32.28;13.13;;;;;;;14.34;69.13;100184.63;5047989;28;20453;-80
2023/01/20 03:58:49;;;;;;;28.92;13.00;;;;;;;14.23;68.81;100191.09;5048266;28;20035;-80
2023/01/20 04:01:18;;;;;;;22.20;12.27;;;;;;;14.31;68.82;100184.91;5048316;28;20029;-78
2023/01/20 04:03:45;;;;;;;17.88;10.52;;;;;;;14.32;68.93;100192.00;5048925;28;20025;-80
2023/01/20 04:06:14;;;;;;;28.50;11.77;;;;;;;14.27;68.88;100175.41;5048510;28;20033;-79
2023/01/20 04:09:05;;;;;;;30.27;11.48;;;;;;;14.29;69.22;100195.88;5030479;28;20626;-78
2023/01/20 04:11:31;;;;;;;16.73;10.32;;;;;;;14.25;68.99;100204.50;4948147;28;20047;-80
2023/01/20 04:13:56;;;;;;;18.83;10.23;;;;;;;14.16;69.11;100196.28;4939842;28;20062;-79
2023/01/20 04:16:24;;;;;;;38.75;12.60;;;;;;;14.24;68.90;100211.75;4949091;28;20054;-80
2023/01/20 04:18:51;;;;;;;24.63;11.85;;;;;;;14.15;68.88;100191.06;4951467;29;20027;-79
2023/01/20 04:21:26;;;;;;;21.92;9.98;;;;;;;14.07;69.02;100210.75;4951296;29;20463;-78
2023/01/20 04:24:26;;;;;;;21.52;10.07;;;;;;;14.03;68.88;100201.28;4951602;29;20616;-80
2023/01/20 04:26:52;;;;;;;30.38;10.10;;;;;;;13.99;69.04;100199.91;4913114;29;20200;-79
2023/01/20 04:29:17;;;;;;;24.52;11.18;;;;;;;14.10;69.28;100220.41;4912848;29;20036;-79
2023/01/20 04:31:43;;;;;;;23.98;11.25;;;;;;;14.12;69.14;100227.38;4913699;29;20158;-79
2023/01/20 04:34:12;;;;;;;24.60;10.82;;;;;;;14.17;68.88;100233.16;4912891;29;20080;-80
2023/01/20 04:36:38;;;;;;;20.40;10.60;;;;;;;14.14;69.03;100236.19;4912858;29;20044;-79
2023/01/20 04:39:03;;;;;;;28.23;11.32;;;;;;;14.18;69.08;100226.75;4913259;29;20080;-80
2023/01/20 04:41:29;;;;;;;42.25;18.10;;;;;;;14.14;68.89;100209.13;4912369;29;20567;-81
2023/01/20 04:43:54;;;;;;;21.90;12.52;;;;;;;14.14;68.62;100217.25;4912612;29;20126;-80
2023/01/20 04:46:19;;;;;;;22.73;11.13;;;;;;;14.16;68.58;100225.19;4913211;29;20032;-79
2023/01/20 04:48:45;;;;;;;27.67;11.25;;;;;;;14.10;68.66;100223.97;4936529;29;20043;-80
2023/01/20 04:51:11;;;;;;;26.65;11.43;;;;;;;14.15;68.58;100240.59;4950810;29;20027;-81
2023/01/20 04:53:37;;;;;;;33.10;11.20;;;;;;;14.05;68.86;100220.91;4951487;29;20046;-80
2023/01/20 04:56:02;;;;;;;19.90;10.18;;;;;;;14.08;68.61;100222.44;4951886;29;20140;-79
2023/01/20 04:58:28;;;;;;;19.17;11.45;;;;;;;14.10;68.68;100223.13;4952912;29;20419;-79
2023/01/20 05:00:53;;;;;;;17.73;9.85;;;;;;;14.28;68.54;100239.34;4951241;29;20147;-80
2023/01/20 05:03:19;;;;;;;33.88;10.82;;;;;;;14.18;68.01;100225.91;4986367;28;20162;-81
2023/01/20 05:05:52;;;;;;;28.00;12.43;;;;;;;14.32;68.22;100233.44;5048872;28;20495;-82
2023/01/20 05:08:18;;;;;;;18.52;10.40;;;;;;;14.28;68.09;100240.16;5048217;28;20033;-81
2023/01/20 05:10:43;;;;;;;21.48;11.05;;;;;;;14.16;68.49;100244.97;5048349;28;20032;-83
2023/01/20 05:13:09;;;;;;;39.45;11.18;;;;;;;14.08;68.94;100242.22;5047855;28;20479;-82
2023/01/20 05:15:34;;;;;;;26.70;11.45;;;;;;;14.16;68.94;100239.56;5051395;28;20029;-83
2023/01/20 05:18:00;;;;;;;48.70;15.00;;;;;;;14.23;68.72;100220.00;5051351;28;20021;-83
2023/01/20 05:20:25;;;;;;;29.95;12.98;;;;;;;14.26;68.28;100222.38;5050293;28;20029;-82
2023/01/20 05:22:51;;;;;;;35.67;12.85;;;;;;;14.31;67.96;100209.25;5045223;28;20116;-82
2023/01/20 05:25:16;;;;;;;33.17;13.52;;;;;;;14.34;67.94;100209.78;5042616;28;20408;-81
2023/01/20 05:27:43;;;;;;;20.45;11.75;;;;;;;14.14;68.78;100192.91;5048313;28;20058;-82
2023/01/20 05:30:09;;;;;;;26.52;11.00;;;;;;;14.30;68.65;100221.06;5043088;28;20036;-79
2023/01/20 05:32:35;;;;;;;32.78;12.63;;;;;;;14.30;68.84;100226.50;5036451;28;20050;-78
2023/01/20 05:35:00;;;;;;;50.83;16.17;;;;;;;14.23;68.78;100211.88;5049078;28;20029;-81
2023/01/20 05:37:26;;;;;;;29.83;13.60;;;;;;;14.34;68.30;100214.38;5049378;28;20033;-82
2023/01/20 05:39:52;;;;;;;34.08;13.65;;;;;;;14.42;68.38;100218.00;5047477;28;20086;-80
2023/01/20 05:42:17;;;;;;;40.13;12.32;;;;;;;14.36;68.50;100220.47;5049895;28;20392;-80
2023/01/20 05:44:43;;;;;;;40.00;13.57;;;;;;;14.36;68.82;100215.06;5048543;28;20572;-81
2023/01/20 05:47:08;;;;;;;30.85;14.02;;;;;;;14.41;68.66;100223.53;5047872;28;20524;-80
2023/01/20 05:49:34;;;;;;;32.63;12.48;;;;;;;14.45;68.23;100219.53;5036262;28;20030;-81
2023/01/20 05:51:59;;;;;;;56.45;15.50;;;;;;;14.46;68.19;100213.94;5037809;28;20029;-79
2023/01/20 05:54:25;;;;;;;62.97;14.02;;;;;;;14.49;67.92;100229.88;5049174;28;20037;-78
2023/01/20 05:56:51;;;;;;;28.67;12.13;;;;;;;14.41;68.59;100223.53;5031413;28;20032;-79
2023/01/20 05:59:16;;;;;;;31.63;12.30;;;;;;;14.22;68.92;100221.03;5049352;28;20028;-79
2023/01/20 06:01:42;;;;;;;25.65;10.85;;;;;;;14.36;68.41;100215.91;5050007;28;20443;-81
2023/01/20 06:04:07;;;;;;;24.80;10.80;;;;;;;14.37;68.47;100223.00;5050267;28;20029;-81
2023/01/20 06:06:32;;;;;;;47.50;13.57;;;;;;;14.31;68.46;100220.09;5049450;28;20036;-81
2023/01/20 06:08:58;;;;;;;40.13;13.73;;;;;;;14.31;68.95;100230.91;5049426;28;20043;-80
2023/01/20 06:11:24;;;;;;;25.98;11.00;;;;;;;14.36;68.79;100231.28;5032186;28;20024;-81
2023/01/20 06:13:49;;;;;;;29.60;11.88;;;;;;;14.27;68.40;100213.28;5050050;28;20420;-81
2023/01/20 06:16:16;;;;;;;28.85;10.98;;;;;;;14.34;68.10;100219.78;5051316;28;20025;-81
2023/01/20 06:18:42;;;;;;;39.58;12.80;;;;;;;14.42;67.91;100217.13;5052480;28;20036;-84
2023/01/20 06:21:07;;;;;;;31.63;12.18;;;;;;;14.49;67.47;100220.91;5052206;28;20029;-80
2023/01/20 06:23:33;;;;;;;43.38;14.35;;;;;;;14.56;67.32;100236.34;5052396;28;20035;-80
2023/01/20 06:26:03;;;;;;;36.75;14.50;;;;;;;14.58;67.18;100238.91;5053583;28;20115;-80
2023/01/20 06:28:31;;;;;;;34.10;15.82;;;;;;;14.44;67.62;100236.75;5043053;28;20112;-81
2023/01/20 06:31:02;;;;;;;25.05;10.82;;;;;;;14.47;67.38;100242.69;5049465;28;20577;-83
2023/01/20 06:33:27;;;;;;;41.67;12.30;;;;;;;14.45;67.53;100227.63;5049512;28;20033;-82
2023/01/20 06:35:54;;;;;;;40.05;12.73;;;;;;;14.54;67.58;100238.34;5043578;28;20048;-84
2023/01/20 06:38:21;;;;;;;56.03;16.88;;;;;;;14.65;67.02;100239.94;5029293;28;20037;-81
2023/01/20 06:40:46;;;;;;;30.63;11.60;;;;;;;14.67;66.65;100237.94;5028408;28;20083;-82
2023/01/20 06:43:12;;;;;;;33.78;11.15;;;;;;;14.71;66.42;100234.72;5023379;28;20056;-83
2023/01/20 06:45:37;;;;;;;38.05;11.15;;;;;;;14.84;66.54;100228.88;5044450;28;20045;-83
2023/01/20 06:48:03;;;;;;;33.95;12.05;;;;;;;14.77;65.83;100238.66;5048937;28;20261;-80
2023/01/20 06:50:28;;;;;;;45.70;11.40;;;;;;;14.88;66.12;100235.69;5050830;28;20035;-83
2023/01/20 06:52:54;;;;;;;55.03;26.20;;;;;;;14.88;65.72;100207.75;5045044;28;20025;-80
2023/01/20 06:55:20;;;;;;;30.38;12.65;;;;;;;15.13;65.39;100225.81;5050099;28;20067;-82
2023/01/20 06:57:45;;;;;;;26.08;10.20;;;;;;;15.19;64.94;100230.56;5050653;28;20461;-81
2023/01/20 07:00:11;;;;;;;25.25;9.45;;;;;;;15.15;63.61;100221.06;5039866;28;20037;-80
2023/01/20 07:02:37;;;;;;;33.92;10.63;;;;;;;15.14;63.60;100217.50;5041186;28;20467;-81
2023/01/20 07:05:06;;;;;;;34.20;9.95;;;;;;;15.26;63.34;100224.31;5047585;28;20036;-81
2023/01/20 07:07:35;;;;;;;33.30;11.85;;;;;;;15.36;63.41;100217.91;5048428;28;20106;-83
2023/01/20 07:10:02;;;;;;;40.22;11.02;;;;;;;15.41;62.57;100220.97;5030436;28;20519;-81
2023/01/20 07:12:27;;;;;;;16.67;9.10;;;;;;;15.35;62.00;100224.34;5047626;28;20020;-83
2023/01/20 07:14:52;;;;;;;27.88;9.85;;;;;;;15.15;62.40;100224.63;5048864;28;20055;-82
2023/01/20 07:17:18;;;;;;;15.00;9.13;;;;;;;15.23;62.21;100212.94;5029342;28;20025;-82
2023/01/20 07:19:44;;;;;;;29.83;8.50;;;;;;;15.32;61.82;100224.69;5048484;28;20031;-83
2023/01/20 07:22:09;;;;;;;34.63;8.55;;;;;;;15.41;61.58;100223.69;5047736;28;20039;-84
2023/01/20 07:24:35;;;;;;;17.20;8.05;;;;;;;15.46;61.47;100229.44;5048720;28;20075;-82
2023/01/20 07:27:00;;;;;;;27.75;10.07;;;;;;;15.16;62.39;100218.19;5048677;28;20036;-83
2023/01/20 07:29:26;;;;;;;25.98;10.52;;;;;;;15.35;62.32;100224.34;5048155;28;20052;-83
2023/01/20 07:31:51;;;;;;;34.75;12.23;;;;;;;15.44;61.96;100223.34;5048943;28;20036;-81
2023/01/20 07:34:17;;;;;;;25.45;9.68;;;;;;;15.49;61.65;100212.88;5047946;28;20021;-81
2023/01/20 07:36:42;;;;;;;24.65;8.98;;;;;;;15.56;61.53;100231.03;5030613;28;20045;-81
2023/01/20 07:39:11;;;;;;;21.67;8.70;;;;;;;15.52;61.68;100223.38;5028608;28;20029;-82
2023/01/20 07:41:37;;;;;;;46.55;11.77;;;;;;;15.57;61.65;100223.72;5027784;28;20041;-82
2023/01/20 07:44:03;;;;;;;22.60;7.60;;;;;;;15.66;61.66;100225.44;5028183;28;20058;-81
2023/01/20 07:46:28;;;;;;;41.25;10.30;;;;;;;15.68;61.70;100228.84;5037311;28;20084;-81
2023/01/20 07:48:55;;;;;;;32.20;14.38;;;;;;;15.79;61.45;100225.81;5048648;28;20033;-81
2023/01/20 07:51:20;;;;;;;34.85;11.32;;;;;;;15.78;61.49;100221.38;5048235;28;20033;-81
2023/01/20 07:53:48;;;;;;;34.38;9.85;;;;;;;15.91;61.32;100232.59;5032317;28;20048;-83
2023/01/20 07:56:26;;;;;;;27.05;9.00;;;;;;;15.87;61.37;100233.94;5032047;28;20037;-80
2023/01/20 07:58:53;;;;;;;22.65;8.20;;;;;;;15.88;61.23;100230.22;5039394;28;20059;-82
2023/01/20 08:02:11;;;;;;;45.83;10.77;;;;;;;15.95;61.23;100219.53;5032560;28;20087;-81
2023/01/20 08:04:37;;;;;;;30.45;9.38;;;;;;;15.90;61.53;100222.75;4932841;29;20058;-83
2023/01/20 08:07:02;;;;;;;86.15;14.77;;;;;;;15.93;61.17;100208.84;4932815;29;20168;-81
2023/01/20 08:09:28;;;;;;;33.83;10.80;;;;;;;16.04;61.22;100219.38;4928518;29;20043;-82
2023/01/20 08:11:53;;;;;;;23.98;8.75;;;;;;;15.98;61.12;100216.50;4932142;29;20625;-83
2023/01/20 08:14:19;;;;;;;28.23;8.18;;;;;;;15.97;61.29;100231.91;4956817;28;20111;-81
2023/01/20 08:16:44;;;;;;;23.73;7.40;;;;;;;15.88;61.90;100232.94;4942705;29;20830;-81
2023/01/20 08:19:09;;;;;;;28.90;10.38;;;;;;;15.74;62.18;100211.91;4931374;29;20032;-82
2023/01/20 08:21:35;;;;;;;23.08;8.68;;;;;;;15.82;61.83;100209.19;4931613;29;20043;-82
2023/01/20 08:24:04;;;;;;;45.83;10.18;;;;;;;15.72;62.38;100211.22;4931582;29;20043;-80
2023/01/20 08:26:30;;;;;;;29.58;9.65;;;;;;;15.70;62.44;100200.56;4930127;29;20031;-81
2023/01/20 08:29:08;;;;;;;41.38;10.60;;;;;;;15.62;62.43;100199.69;4931319;29;20058;-80
2023/01/20 08:31:34;;;;;;;34.90;10.38;;;;;;;15.68;62.50;100215.28;4932397;29;20039;-82
2023/01/20 08:34:00;;;;;;;36.58;10.55;;;;;;;15.81;62.48;100212.09;4942007;29;20158;-81
2023/01/20 08:36:28;;;;;;;51.45;19.00;;;;;;;15.83;62.51;100194.63;4931304;29;20039;-80
2023/01/20 08:38:56;;;;;;;27.00;9.27;;;;;;;15.87;62.43;100212.25;4932537;29;20044;-80
2023/01/20 08:41:25;;;;;;;22.00;8.82;;;;;;;15.98;61.57;100214.63;4946449;29;20050;-81
2023/01/20 08:43:51;;;;;;;30.20;9.98;;;;;;;16.11;61.99;100212.28;4969002;28;20102;-80
2023/01/20 08:46:18;;;;;;;25.98;9.35;;;;;;;16.08;61.34;100196.34;4973600;28;20061;-82
2023/01/20 08:48:45;;;;;;;29.45;9.18;;;;;;;16.13;61.50;100202.09;4977916;28;20483;-81
2023/01/20 08:51:14;;;;;;;12.63;8.23;;;;;;;16.30;60.41;100198.31;4971983;28;20030;-81
2023/01/20 08:53:40;;;;;;;36.75;9.88;;;;;;;16.22;60.54;100211.06;4978201;28;20038;-83
2023/01/20 08:56:06;;;;;;;24.25;8.30;;;;;;;15.96;60.89;100186.81;5032620;28;20041;-81
2023/01/20 08:58:32;;;;;;;24.38;8.45;;;;;;;15.92;61.28;100199.03;5032060;28;20059;-81
2023/01/20 09:00:58;;;;;;;21.00;7.80;;;;;;;16.02;61.06;100183.44;5030679;28;20045;-81
2023/01/20 09:03:24;;;;;;;17.27;7.82;;;;;;;16.02;60.82;100171.75;5029003;28;20061;-80
2023/01/20 09:05:49;;;;;;;56.85;12.75;;;;;;;16.09;61.06;100189.88;5030540;28;20101;-80
2023/01/20 09:08:16;;;;;;;31.70;9.13;;;;;;;16.11;60.83;100182.44;5028348;28;20036;-81
2023/01/20 09:10:43;;;;;;;33.63;10.23;;;;;;;16.19;60.38;100187.84;5006795;28;20029;-81
2023/01/20 09:13:09;;;;;;;26.15;8.50;;;;;;;16.25;59.99;100184.44;5030904;28;20056;-83
2023/01/20 09:15:34;;;;;;;23.15;10.05;;;;;;;16.30;59.82;100181.19;5021476;28;20131;-83
2023/01/20 09:17:59;;;;;;;22.42;9.75;;;;;;;16.28;59.39;100165.09;5029791;28;20128;-81
2023/01/20 09:20:27;;;;;;;28.75;9.18;;;;;;;16.18;59.57;100156.28;5029212;28;20048;-81
2023/01/20 09:22:53;;;;;;;26.67;8.68;;;;;;;16.02;59.90;100161.75;5029716;28;20513;-81
2023/01/20 09:25:18;;;;;;;18.75;8.30;;;;;;;16.03;59.29;100158.00;5030276;28;20033;-81
2023/01/20 09:27:44;;;;;;;27.77;8.02;;;;;;;15.97;60.21;100146.97;5029344;28;20033;-81
2023/01/20 09:30:10;;;;;;;22.42;7.68;;;;;;;15.64;60.65;100148.88;5031545;28;20060;-82
2023/01/20 09:32:35;;;;;;;22.27;9.45;;;;;;;15.46;61.36;100150.84;5029770;28;20033;-83
2023/01/20 09:35:01;;;;;;;22.20;9.75;;;;;;;15.43;61.82;100122.22;5030118;28;20069;-82
2023/01/20 09:43:53;;;;;;;25.02;8.82;;;;;;;15.68;62.33;100142.09;5029276;28;20087;-81
2023/01/20 09:46:18;;;;;;;38.67;14.32;;;;;;;16.00;61.75;100138.50;5004692;28;20138;-83
2023/01/20 09:55:38;;;;;;;30.27;9.88;;;;;;;16.31;60.46;100124.03;4970041;28;20106;-80
2023/01/20 09:58:06;;;;;;;22.92;8.95;;;;;;;15.99;61.23;100123.25;4974941;28;20049;-82
2023/01/20 10:00:34;;;;;;;33.85;8.73;;;;;;;16.09;61.12;100107.63;4971647;28;20056;-80
2023/01/20 10:03:23;;;;;;;14.50;7.85;;;;;;;16.17;60.73;100100.34;4968053;28;20849;-82
2023/01/20 10:05:54;;;;;;;20.05;9.00;;;;;;;16.12;60.99;100094.56;4967401;28;20086;-82
2023/01/20 10:08:32;;;;;;;37.05;8.38;;;;;;;16.08;60.99;100085.09;4967643;28;20102;-84
2023/01/20 10:11:00;;;;;;;24.52;9.18;;;;;;;16.13;61.21;100080.00;4968659;28;20023;-82
2023/01/20 10:13:38;;;;;;;44.45;11.52;;;;;;;16.20;60.97;100078.28;4971593;28;20042;-82
2023/01/20 10:16:11;;;;;;;29.35;9.70;;;;;;;16.07;61.39;100060.84;4975144;28;20586;-80
2023/01/20 10:18:46;;;;;;;24.77;8.43;;;;;;;16.21;61.39;100063.69;4972727;28;20038;-82
2023/01/20 10:21:24;;;;;;;26.58;8.68;;;;;;;16.16;61.50;100038.09;4969242;28;20039;-81
2023/01/20 10:24:01;;;;;;;25.73;9.68;;;;;;;16.29;61.09;100044.69;4977966;28;20065;-84
2023/01/20 10:26:32;;;;;;;33.00;10.23;;;;;;;16.25;61.37;100032.47;4987997;28;20030;-81
2023/01/20 10:29:03;;;;;;;39.00;14.98;;;;;;;16.26;61.13;100033.31;5018881;28;20050;-83
2023/01/20 10:31:42;;;;;;;21.00;10.02;;;;;;;16.31;61.42;100036.34;5031136;28;20025;-82
2023/01/20 10:34:19;;;;;;;35.28;9.02;;;;;;;16.27;61.20;100011.41;5028616;28;20127;-81
2023/01/20 10:37:05;;;;;;;17.92;8.13;;;;;;;16.26;61.31;100012.47;5014317;28;20087;-80
2023/01/20 10:39:41;;;;;;;23.95;7.72;;;;;;;16.34;61.42;100025.13;5036205;28;20116;-81
2023/01/20 10:42:13;;;;;;;28.75;8.60;;;;;;;16.32;61.29;100022.63;5040243;28;20535;-83
2023/01/20 10:44:39;;;;;;;22.25;7.95;;;;;;;16.14;60.92;99997.59;5041498;28;20056;-83
2023/01/20 10:47:07;;;;;;;25.40;8.57;;;;;;;16.07;61.56;99991.16;5035323;28;20068;-83
2023/01/20 10:49:46;;;;;;;68.75;13.07;;;;;;;16.19;60.91;99987.03;5031984;28;20075;-81
2023/01/20 10:52:29;;;;;;;20.92;7.75;;;;;;;16.19;59.72;99978.91;5032562;28;20432;-83
2023/01/20 10:55:14;;;;;;;18.08;7.57;;;;;;;16.14;59.21;99970.47;5027426;28;20029;-84
2023/01/20 10:57:39;;;;;;;22.17;7.40;;;;;;;16.10;58.81;99963.69;5018099;28;20093;-82
2023/01/20 11:00:16;;;;;;;21.50;6.90;;;;;;;16.11;58.97;99949.13;5018732;28;20567;-83
2023/01/20 11:02:42;;;;;;;15.18;7.13;;;;;;;16.02;58.37;99944.75;5028183;28;20029;-83
2023/01/20 11:05:20;;;;;;;17.75;6.97;;;;;;;16.23;58.22;99952.28;5029594;28;20041;-83
2023/01/20 11:07:48;;;;;;;29.60;7.13;;;;;;;16.24;57.55;99941.22;5002101;28;20031;-83
2023/01/20 11:10:14;;;;;;;27.30;6.85;;;;;;;16.29;57.75;99933.41;5032070;28;20123;-86
2023/01/20 11:12:42;;;;;;;24.63;6.65;;;;;;;16.22;57.28;99913.44;5031678;28;20607;-82
2023/01/20 11:15:40;;;;;;;31.58;10.90;;;;;;;16.00;57.34;99911.50;5014429;28;20061;-82
2023/01/20 11:18:15;;;;;;;30.02;7.13;;;;;;;16.20;57.33;99923.63;5011850;28;20080;-85
2023/01/20 11:20:51;;;;;;;25.67;8.50;;;;;;;16.36;56.34;99909.09;5012677;28;20045;-82
2023/01/20 11:24:01;;;;;;;18.73;7.05;;;;;;;16.39;55.80;99897.06;5027573;28;20037;-82
2023/01/20 11:26:36;;;;;;;24.90;7.93;;;;;;;16.45;55.63;99897.16;4970189;28;20100;-84
2023/01/20 11:29:10;;;;;;;17.45;7.97;;;;;;;16.44;55.94;99897.34;4972911;28;20042;-83
2023/01/20 11:31:42;;;;;;;22.80;6.10;;;;;;;16.50;55.43;99894.78;4972331;28;20074;-83
2023/01/20 11:34:30;;;;;;;17.42;6.85;;;;;;;16.45;54.98;99888.19;4971948;28;20043;-83
2023/01/20 11:37:02;;;;;;;15.27;6.20;;;;;;;16.55;55.02;99894.25;4971768;28;20783;-84